Time;durP1;ratioP1;P1;durP2;ratioP2;P2;SDS_P1;SDS_P2;PMS_P1;PMS_P2;Temp;Humidity;BMP_temperature;BMP_pressure;BME280_temperature;BME280_humidity;BME280_pressure;Samples;Min_cycle;Max_cycle;Signal;HPM_P1;HPM_P2
2022/11/12 00:00:40;;;;;;;14.45;9.15;;;8.80;99.90;;;;;;4797644;29;20052;-83
2022/11/12 00:03:07;;;;;;;13.10;8.40;;;8.80;99.90;;;;;;4784428;29;20140;-84
2022/11/12 00:05:35;;;;;;;15.32;8.50;;;8.70;99.90;;;;;;4811446;29;20124;-85
2022/11/12 00:08:02;;;;;;;15.07;9.60;;;8.80;99.90;;;;;;4798511;29;20722;-84
2022/11/12 00:10:31;;;;;;;15.07;9.82;;;8.80;99.90;;;;;;4811445;29;20058;-84
2022/11/12 00:12:57;;;;;;;12.05;8.55;;;8.70;99.90;;;;;;4811627;29;20172;-85
2022/11/12 00:15:26;;;;;;;14.73;8.98;;;8.70;99.90;;;;;;4812964;29;20069;-84
2022/11/12 00:17:52;;;;;;;13.65;9.50;;;8.70;99.90;;;;;;4791547;29;20064;-84
2022/11/12 00:20:18;;;;;;;16.20;9.30;;;8.70;99.90;;;;;;4794202;29;20057;-84
2022/11/12 00:22:43;;;;;;;16.13;9.32;;;8.70;99.90;;;;;;4776397;29;20069;-83
2022/11/12 00:25:12;;;;;;;14.43;9.65;;;8.70;99.90;;;;;;4794514;29;20048;-85
2022/11/12 00:27:38;;;;;;;19.63;9.77;;;8.60;99.90;;;;;;4792207;29;20053;-84
2022/11/12 00:30:05;;;;;;;19.17;12.10;;;8.80;99.90;;;;;;4778804;29;20050;-84
2022/11/12 00:32:34;;;;;;;18.48;10.68;;;8.80;99.90;;;;;;4778133;29;20056;-83
2022/11/12 00:35:00;;;;;;;16.52;9.80;;;8.90;99.90;;;;;;4777707;29;20457;-85
2022/11/12 00:37:25;;;;;;;20.65;11.45;;;8.80;99.90;;;;;;4793155;29;20057;-84
2022/11/12 00:39:51;;;;;;;17.25;10.85;;;9.00;99.90;;;;;;4794455;29;20144;-84
2022/11/12 00:42:17;;;;;;;19.70;10.65;;;9.00;99.90;;;;;;4793760;29;20080;-84
2022/11/12 00:44:43;;;;;;;20.17;10.75;;;9.10;99.90;;;;;;4807498;29;20613;-85
2022/11/12 00:47:08;;;;;;;16.42;9.45;;;8.90;99.90;;;;;;4793164;29;20053;-83
2022/11/12 00:49:34;;;;;;;16.85;9.98;;;9.00;99.90;;;;;;4779919;29;20474;-85
2022/11/12 00:52:00;;;;;;;18.17;10.07;;;8.80;99.90;;;;;;4808777;29;20097;-84
2022/11/12 00:54:26;;;;;;;14.80;9.43;;;8.70;99.90;;;;;;4806758;29;20054;-85
2022/11/12 00:56:51;;;;;;;14.75;9.55;;;8.60;99.90;;;;;;4807351;29;20046;-85
2022/11/12 00:59:17;;;;;;;13.38;9.23;;;8.60;99.90;;;;;;4791824;29;20146;-84
2022/11/12 01:01:43;;;;;;;16.75;9.15;;;9.20;99.90;;;;;;4793574;29;20488;-85
2022/11/12 01:04:09;;;;;;;17.95;9.52;;;8.40;99.90;;;;;;4792950;29;20069;-83
2022/11/12 01:06:39;;;;;;;16.35;9.73;;;7.50;99.90;;;;;;4798785;29;20042;-84
2022/11/12 01:09:08;;;;;;;14.90;9.52;;;8.40;99.90;;;;;;4794776;29;20567;-84
2022/11/12 01:11:35;;;;;;;14.43;9.40;;;8.40;99.90;;;;;;4811622;29;20522;-84
2022/11/12 01:14:08;;;;;;;12.50;8.60;;;8.20;99.90;;;;;;4813112;29;20061;-85
2022/11/12 01:16:39;;;;;;;13.48;8.52;;;8.20;99.90;;;;;;4810913;29;20061;-84
2022/11/12 01:19:07;;;;;;;12.45;7.93;;;8.10;99.90;;;;;;4798809;29;20049;-84
2022/11/12 01:21:37;;;;;;;14.82;9.00;;;8.10;99.90;;;;;;4796285;29;20109;-84
2022/11/12 01:24:03;;;;;;;13.35;8.95;;;9.10;99.90;;;;;;4812161;29;20055;-84
2022/11/12 01:26:30;;;;;;;13.75;8.30;;;8.10;99.90;;;;;;4799662;29;20124;-85
2022/11/12 01:28:59;;;;;;;12.73;8.63;;;8.00;99.90;;;;;;4781405;29;20058;-84
2022/11/12 01:31:30;;;;;;;14.68;9.05;;;8.10;99.90;;;;;;4798640;29;20057;-84
2022/11/12 01:33:58;;;;;;;10.52;8.27;;;8.00;99.90;;;;;;4809985;29;20141;-85
2022/11/12 01:36:26;;;;;;;14.25;8.60;;;8.00;99.90;;;;;;4796595;29;20621;-84
2022/11/12 01:38:53;;;;;;;12.52;9.00;;;8.10;99.90;;;;;;4797889;29;20054;-84
2022/11/12 01:41:23;;;;;;;14.25;8.52;;;8.10;99.90;;;;;;4799066;29;20160;-85
2022/11/12 01:44:13;;;;;;;11.82;7.97;;;8.10;99.90;;;;;;4799610;29;20440;-85
2022/11/12 01:46:52;;;;;;;14.77;8.40;;;8.10;99.90;;;;;;4800694;29;20081;-84
2022/11/12 01:49:26;;;;;;;12.30;8.38;;;8.20;99.90;;;;;;4798421;29;20060;-84
2022/11/12 01:51:54;;;;;;;13.43;8.25;;;8.20;99.90;;;;;;4797407;29;20125;-84
2022/11/12 01:54:21;;;;;;;16.08;9.10;;;9.40;99.90;;;;;;4826497;29;20054;-84
2022/11/12 01:56:50;;;;;;;17.00;9.13;;;8.20;99.90;;;;;;4805005;29;20115;-84
2022/11/12 01:59:29;;;;;;;12.85;9.02;;;7.30;99.90;;;;;;4808937;29;20088;-84
2022/11/12 02:01:55;;;;;;;15.80;9.13;;;9.30;99.90;;;;;;4814492;29;20070;-83
2022/11/12 02:04:22;;;;;;;15.52;9.50;;;8.40;99.90;;;;;;4808702;29;20050;-83
2022/11/12 02:06:49;;;;;;;13.27;8.80;;;8.30;99.90;;;;;;4796864;29;20091;-84
2022/11/12 02:09:18;;;;;;;13.27;8.93;;;8.40;99.90;;;;;;4794814;29;20062;-84
2022/11/12 02:11:45;;;;;;;13.20;8.70;;;8.50;99.90;;;;;;4798688;29;20598;-84
2022/11/12 02:14:12;;;;;;;14.82;9.18;;;8.40;99.90;;;;;;4796951;29;20548;-84
2022/11/12 02:16:44;;;;;;;15.15;8.70;;;8.50;99.90;;;;;;4794657;29;20539;-84
2022/11/12 02:19:12;;;;;;;12.85;9.00;;;8.70;99.90;;;;;;4796662;29;20613;-84
2022/11/12 02:21:39;;;;;;;12.98;8.90;;;7.50;99.90;;;;;;4811838;29;20053;-84
2022/11/12 02:24:10;;;;;;;14.05;8.90;;;8.60;99.90;;;;;;4813140;29;20053;-84
2022/11/12 02:26:46;;;;;;;13.20;8.65;;;8.60;99.90;;;;;;4814677;29;20582;-84
2022/11/12 02:29:12;;;;;;;14.90;9.05;;;8.60;99.90;;;;;;4797553;29;20050;-84
2022/11/12 02:31:38;;;;;;;15.57;9.02;;;8.80;99.90;;;;;;4811399;29;20062;-84
2022/11/12 02:34:04;;;;;;;12.68;8.55;;;8.50;99.90;;;;;;4796030;29;20042;-84
2022/11/12 02:36:30;;;;;;;15.27;9.45;;;8.70;99.90;;;;;;4796829;29;20050;-84
2022/11/12 02:38:56;;;;;;;14.55;8.93;;;8.70;99.90;;;;;;4798646;29;20098;-84
2022/11/12 02:41:22;;;;;;;14.48;9.23;;;8.70;99.90;;;;;;4812561;29;20049;-84
2022/11/12 02:43:48;;;;;;;13.05;9.15;;;8.80;99.90;;;;;;4798821;29;20390;-85
2022/11/12 02:46:14;;;;;;;15.13;9.63;;;8.70;99.90;;;;;;4809190;29;20180;-84
2022/11/12 02:48:40;;;;;;;15.48;9.10;;;8.80;99.90;;;;;;4799554;29;20054;-84
2022/11/12 02:51:06;;;;;;;16.17;8.85;;;9.90;99.90;;;;;;4796420;29;20054;-85
2022/11/12 02:53:34;;;;;;;13.93;9.35;;;8.70;99.90;;;;;;4782498;29;20054;-84
2022/11/12 02:56:00;;;;;;;12.70;9.45;;;8.80;99.90;;;;;;4795032;29;20049;-84
2022/11/12 02:58:27;;;;;;;13.50;8.90;;;8.90;99.90;;;;;;4796747;29;20077;-84
2022/11/12 03:00:53;;;;;;;17.83;10.38;;;9.80;99.90;;;;;;4810540;29;20049;-85
2022/11/12 03:03:19;;;;;;;17.20;9.88;;;9.30;99.90;;;;;;4794013;29;20129;-85
2022/11/12 03:05:53;;;;;;;18.00;9.85;;;7.90;99.90;;;;;;4795824;29;20042;-85
2022/11/12 03:08:19;;;;;;;15.80;10.20;;;9.10;99.90;;;;;;4795879;29;20050;-84
2022/11/12 03:10:45;;;;;;;17.42;10.50;;;8.90;99.90;;;;;;4796571;29;20061;-84
2022/11/12 03:13:11;;;;;;;18.90;10.30;;;9.10;99.90;;;;;;4801928;29;20057;-85
2022/11/12 03:15:36;;;;;;;15.00;10.23;;;9.00;99.90;;;;;;4783111;29;20057;-84
2022/11/12 03:18:02;;;;;;;19.02;11.27;;;9.10;99.90;;;;;;4796705;29;20519;-85
2022/11/12 03:20:29;;;;;;;18.80;11.50;;;8.90;99.90;;;;;;4781485;29;20062;-85
2022/11/12 03:23:01;;;;;;;21.55;12.07;;;9.10;99.90;;;;;;4797740;29;20062;-85
2022/11/12 03:25:28;;;;;;;23.77;12.98;;;9.10;99.90;;;;;;4794751;29;20066;-84
2022/11/12 03:28:02;;;;;;;21.50;12.82;;;9.10;99.90;;;;;;4797656;29;20054;-85
2022/11/12 03:30:29;;;;;;;22.33;12.70;;;9.20;99.90;;;;;;4810289;29;20134;-85
2022/11/12 03:32:55;;;;;;;26.40;13.45;;;9.30;99.90;;;;;;4799205;29;20050;-85
2022/11/12 03:35:21;;;;;;;24.48;13.98;;;9.20;99.90;;;;;;4809175;29;20057;-84
2022/11/12 03:37:47;;;;;;;19.58;11.98;;;9.20;99.90;;;;;;4798638;29;20065;-85
2022/11/12 03:40:13;;;;;;;27.02;14.88;;;9.20;99.90;;;;;;4801735;29;20050;-84
2022/11/12 03:42:47;;;;;;;32.92;16.02;;;9.20;99.90;;;;;;4782215;29;20136;-85
2022/11/12 03:45:14;;;;;;;26.50;14.68;;;9.30;99.90;;;;;;4795607;29;20563;-84
2022/11/12 03:47:44;;;;;;;31.35;15.93;;;9.40;99.90;;;;;;4796257;29;20508;-85
2022/11/12 03:50:11;;;;;;;31.45;16.33;;;9.30;99.90;;;;;;4812978;29;20061;-85
2022/11/12 03:52:40;;;;;;;37.40;18.08;;;9.40;99.90;;;;;;4797698;29;20380;-85
2022/11/12 03:55:09;;;;;;;28.80;17.25;;;8.70;99.90;;;;;;4808191;29;20051;-85
2022/11/12 03:57:38;;;;;;;39.92;18.40;;;8.40;99.90;;;;;;4783492;29;20141;-85
2022/11/12 04:00:05;;;;;;;30.33;17.67;;;9.50;99.90;;;;;;4810211;29;20042;-85
2022/11/12 04:02:32;;;;;;;38.80;20.00;;;9.40;99.90;;;;;;4809895;29;20102;-85
2022/11/12 04:10:28;;;;;;;34.25;18.48;;;9.30;99.90;;;;;;4808889;29;20050;-85
2022/11/12 04:15:41;;;;;;;37.40;19.58;;;8.40;99.90;;;;;;4810027;29;20053;-84
2022/11/12 04:23:36;;;;;;;49.78;21.25;;;9.60;99.90;;;;;;4797576;29;20063;-84
2022/11/12 04:26:22;;;;;;;90.05;22.35;;;9.50;99.90;;;;;;4792469;29;20046;-83
2022/11/12 04:31:35;;;;;;;39.38;17.50;;;9.50;99.90;;;;;;4797871;29;20015;-85
2022/11/12 04:34:27;;;;;;;44.33;19.15;;;9.60;99.90;;;;;;4807216;29;20493;-84
2022/11/12 04:36:46;;;;;;;42.13;18.25;;;9.60;99.90;;;;;;4807772;29;20066;-84
2022/11/12 04:39:20;;;;;;;66.68;18.50;;;9.60;99.90;;;;;;4809547;29;20198;-85
2022/11/12 04:47:15;;;;;;;51.00;17.27;;;9.70;99.90;;;;;;4800360;29;20138;-84
2022/11/12 04:49:40;;;;;;;26.42;15.10;;;9.60;99.90;;;;;;4787093;29;20050;-84
2022/11/12 04:52:09;;;;;;;40.00;15.70;;;9.70;99.90;;;;;;4770547;29;20050;-84
2022/11/12 04:54:35;;;;;;;59.78;18.35;;;9.60;99.90;;;;;;4811369;29;20046;-84
2022/11/12 04:57:01;;;;;;;56.92;17.40;;;9.60;99.90;;;;;;4789866;29;20563;-84
2022/11/12 04:59:26;;;;;;;71.90;18.13;;;9.60;99.90;;;;;;4799487;29;20060;-84
2022/11/12 05:01:52;;;;;;;27.92;15.18;;;9.60;99.90;;;;;;4788809;29;20110;-84
2022/11/12 05:04:18;;;;;;;54.35;16.38;;;9.60;99.90;;;;;;4795672;29;20148;-84
2022/11/12 05:06:53;;;;;;;94.75;18.58;;;9.60;99.90;;;;;;4799153;29;20058;-85
2022/11/12 05:09:24;;;;;;;26.80;14.68;;;9.60;99.90;;;;;;4786743;29;20133;-84
2022/11/12 05:11:51;;;;;;;42.70;16.27;;;9.60;99.90;;;;;;4795889;29;20113;-85
2022/11/12 05:14:17;;;;;;;82.28;17.73;;;9.60;99.90;;;;;;4767801;29;20053;-84
2022/11/12 05:16:43;;;;;;;28.38;15.43;;;9.60;99.90;;;;;;4814297;29;20075;-84
2022/11/12 05:19:09;;;;;;;38.72;16.20;;;9.60;99.90;;;;;;4784355;29;20139;-85
2022/11/12 05:24:20;;;;;;;37.42;15.95;;;10.10;99.90;;;;;;4813554;29;20058;-84
2022/11/12 05:26:45;;;;;;;57.88;16.63;;;9.50;99.90;;;;;;4798928;29;20054;-83
2022/11/12 05:29:11;;;;;;;40.80;16.17;;;9.50;99.90;;;;;;4783604;29;20123;-83
2022/11/12 05:31:37;;;;;;;66.63;17.73;;;9.60;99.90;;;;;;4775677;29;20057;-84
2022/11/12 05:34:02;;;;;;;41.13;16.40;;;9.80;99.90;;;;;;4796603;29;20152;-84
2022/11/12 05:36:28;;;;;;;56.03;17.90;;;9.50;99.90;;;;;;4814554;29;20453;-84
2022/11/12 05:38:54;;;;;;;33.38;16.02;;;9.50;99.90;;;;;;4783893;29;20050;-84
2022/11/12 05:41:20;;;;;;;47.78;16.25;;;9.50;99.90;;;;;;4801129;29;20050;-83
2022/11/12 05:43:45;;;;;;;30.42;16.00;;;9.50;99.90;;;;;;4799226;29;21019;-84
2022/11/12 05:46:11;;;;;;;34.15;17.10;;;9.50;99.90;;;;;;4799060;29;20053;-84
2022/11/12 05:48:37;;;;;;;40.38;17.13;;;9.50;99.90;;;;;;4799050;29;20042;-84
2022/11/12 05:51:03;;;;;;;43.30;18.48;;;9.50;99.90;;;;;;4810882;29;20046;-84
2022/11/12 05:53:28;;;;;;;45.63;18.00;;;9.20;99.90;;;;;;4782534;29;20041;-84
2022/11/12 05:56:03;;;;;;;40.30;18.67;;;9.50;99.90;;;;;;4789898;29;20053;-84
2022/11/12 05:58:30;;;;;;;39.20;18.70;;;9.40;99.90;;;;;;4794676;29;20068;-84
2022/11/12 06:00:55;;;;;;;38.30;18.15;;;9.40;99.90;;;;;;4801246;29;20128;-84
2022/11/12 06:03:23;;;;;;;37.95;19.65;;;9.40;99.90;;;;;;4789166;29;20058;-81
2022/11/12 06:05:54;;;;;;;38.88;18.48;;;9.40;99.90;;;;;;4800528;29;20057;-84
2022/11/12 06:08:20;;;;;;;37.45;18.73;;;9.40;99.90;;;;;;4778520;29;20985;-84
2022/11/12 06:10:54;;;;;;;37.63;17.90;;;9.30;99.90;;;;;;4796054;29;20057;-85
2022/11/12 06:13:28;;;;;;;37.25;17.25;;;9.40;99.90;;;;;;4799462;29;20068;-85
2022/11/12 06:15:55;;;;;;;36.78;18.60;;;9.30;99.90;;;;;;4807483;29;20053;-84
2022/11/12 06:18:21;;;;;;;38.17;18.73;;;9.30;99.90;;;;;;4810034;29;20480;-84
2022/11/12 06:23:32;;;;;;;42.28;18.20;;;9.30;99.90;;;;;;4792384;29;20066;-84
2022/11/12 06:25:58;;;;;;;37.97;19.90;;;9.30;99.90;;;;;;4793616;29;20567;-84
2022/11/12 06:28:24;;;;;;;39.08;19.40;;;9.20;99.90;;;;;;4793973;29;20072;-85
2022/11/12 06:30:49;;;;;;;38.03;19.45;;;8.40;99.90;;;;;;4794637;29;20059;-84
2022/11/12 06:33:15;;;;;;;46.78;21.55;;;9.30;99.90;;;;;;4793759;29;20065;-84
2022/11/12 06:35:41;;;;;;;51.63;23.02;;;9.20;99.90;;;;;;4810121;29;20046;-84
2022/11/12 06:38:07;;;;;;;57.22;25.48;;;9.10;99.90;;;;;;4792129;29;20053;-86
2022/11/12 06:40:33;;;;;;;52.67;23.95;;;9.10;99.90;;;;;;4788797;29;20332;-84
2022/11/12 06:42:59;;;;;;;53.28;24.77;;;9.10;99.90;;;;;;4806538;29;20050;-84
2022/11/12 06:45:25;;;;;;;48.63;23.23;;;9.10;99.90;;;;;;4777093;29;20065;-84
2022/11/12 06:47:51;;;;;;;49.88;23.65;;;9.20;99.90;;;;;;4803929;29;20054;-83
2022/11/12 06:50:16;;;;;;;54.33;25.88;;;9.20;99.90;;;;;;4789858;29;20061;-85
2022/11/12 06:52:42;;;;;;;61.38;27.38;;;9.10;99.90;;;;;;4805764;29;20085;-85
2022/11/12 06:55:08;;;;;;;56.20;26.90;;;9.10;99.90;;;;;;4807266;29;20054;-84
2022/11/12 06:57:34;;;;;;;53.63;27.45;;;9.10;99.90;;;;;;4804136;29;20134;-84
2022/11/12 07:00:00;;;;;;;68.07;29.70;;;9.10;99.90;;;;;;4794526;29;20087;-83
2022/11/12 07:02:26;;;;;;;58.83;27.58;;;9.20;99.90;;;;;;4796338;29;20066;-85
2022/11/12 07:04:52;;;;;;;51.10;25.80;;;8.00;99.90;;;;;;4804587;29;20519;-84
2022/11/12 07:07:17;;;;;;;55.22;27.70;;;9.10;99.90;;;;;;4792586;29;20054;-84
2022/11/12 07:09:43;;;;;;;54.03;25.13;;;9.00;99.90;;;;;;4792070;29;20257;-84
2022/11/12 07:12:12;;;;;;;51.85;25.52;;;10.00;99.90;;;;;;4789288;29;20110;-84
2022/11/12 07:14:38;;;;;;;56.13;25.83;;;9.10;99.90;;;;;;4789665;29;20092;-85
2022/11/12 07:17:04;;;;;;;60.97;26.13;;;9.60;99.90;;;;;;4791009;29;20701;-85
2022/11/12 07:19:32;;;;;;;58.42;27.60;;;8.40;99.90;;;;;;4791938;29;20522;-85
2022/11/12 07:21:57;;;;;;;63.90;27.10;;;9.10;99.90;;;;;;4791615;29;20385;-85
2022/11/12 07:24:23;;;;;;;57.13;24.83;;;8.90;99.90;;;;;;4790556;29;20050;-85
2022/11/12 07:26:49;;;;;;;54.30;25.73;;;9.10;99.90;;;;;;4790920;29;20168;-84
2022/11/12 07:29:15;;;;;;;54.92;25.17;;;9.10;99.90;;;;;;4792976;29;20049;-83
2022/11/12 07:31:40;;;;;;;70.05;27.75;;;9.10;99.90;;;;;;4777111;29;20058;-84
2022/11/12 07:34:06;;;;;;;62.00;25.88;;;9.10;99.90;;;;;;4788794;29;20056;-86
2022/11/12 07:36:32;;;;;;;52.22;26.60;;;9.10;99.90;;;;;;4792853;29;20137;-85
2022/11/12 07:38:58;;;;;;;57.88;27.63;;;9.10;99.90;;;;;;4792117;29;20535;-85
2022/11/12 07:41:25;;;;;;;79.32;26.27;;;9.20;99.90;;;;;;4792567;29;20054;-83
2022/11/12 07:43:52;;;;;;;53.33;24.95;;;9.10;99.90;;;;;;4786686;29;20603;-83
2022/11/12 07:46:24;;;;;;;65.53;26.05;;;9.10;99.90;;;;;;4805595;29;20144;-82
2022/11/12 07:48:50;;;;;;;50.85;23.65;;;9.10;99.90;;;;;;4803914;29;20054;-81
2022/11/12 07:51:23;;;;;;;49.67;24.17;;;9.10;99.90;;;;;;4774835;29;20061;-83
2022/11/12 07:53:49;;;;;;;46.90;22.15;;;8.30;99.90;;;;;;4805737;29;20074;-82
2022/11/12 07:56:19;;;;;;;49.30;22.73;;;9.10;99.90;;;;;;4790335;29;20046;-83
2022/11/12 07:58:46;;;;;;;54.47;23.40;;;9.10;99.90;;;;;;4790624;29;20827;-82
2022/11/12 08:01:37;;;;;;;49.00;20.95;;;9.10;99.90;;;;;;4789459;29;20081;-82
2022/11/12 08:04:06;;;;;;;48.28;21.02;;;9.10;99.90;;;;;;4791712;29;20057;-81
2022/11/12 08:06:33;;;;;;;51.10;22.50;;;9.10;99.90;;;;;;4806374;29;20757;-81
2022/11/12 08:09:00;;;;;;;59.10;22.92;;;9.00;99.90;;;;;;4776712;29;20069;-83
2022/11/12 08:11:26;;;;;;;75.97;24.33;;;9.10;99.90;;;;;;4809091;29;20134;-81
2022/11/12 08:13:52;;;;;;;49.72;21.60;;;9.00;99.90;;;;;;4794139;29;20066;-85
2022/11/12 08:16:20;;;;;;;52.05;21.73;;;9.10;99.90;;;;;;4794494;29;20147;-88
2022/11/12 08:18:46;;;;;;;47.42;21.13;;;9.10;99.90;;;;;;4793947;29;20054;-84
2022/11/12 08:21:20;;;;;;;43.85;20.13;;;9.00;99.90;;;;;;4792075;29;20397;-86
2022/11/12 08:23:47;;;;;;;36.70;18.40;;;9.10;99.90;;;;;;4789755;29;20093;-84
2022/11/12 08:26:17;;;;;;;42.22;17.80;;;9.10;99.90;;;;;;4792576;29;20053;-83
2022/11/12 08:28:43;;;;;;;36.50;17.33;;;9.10;99.90;;;;;;4790966;29;20043;-84
2022/11/12 08:31:17;;;;;;;36.33;17.15;;;9.10;99.90;;;;;;4773664;29;20130;-81
2022/11/12 08:33:43;;;;;;;33.30;16.52;;;9.00;99.90;;;;;;4788691;29;20049;-83
2022/11/12 08:36:12;;;;;;;30.42;16.38;;;9.00;99.90;;;;;;4776536;29;20153;-84
2022/11/12 08:38:38;;;;;;;46.95;18.55;;;9.00;99.90;;;;;;4777442;29;20058;-84
2022/11/12 08:41:09;;;;;;;34.00;16.50;;;9.00;99.90;;;;;;4770616;29;20051;-82
2022/11/12 08:43:35;;;;;;;34.38;17.30;;;9.10;99.90;;;;;;4789627;29;20050;-84
2022/11/12 08:46:02;;;;;;;37.05;17.77;;;9.00;99.90;;;;;;4774405;29;20081;-82
2022/11/12 08:48:34;;;;;;;32.92;17.13;;;9.00;99.90;;;;;;4757608;29;20054;-83
2022/11/12 08:51:04;;;;;;;32.35;16.40;;;9.10;99.90;;;;;;4788421;29;20089;-84
2022/11/12 08:53:32;;;;;;;34.83;16.60;;;9.00;99.90;;;;;;4773918;29;20062;-84
2022/11/12 08:55:58;;;;;;;31.35;17.17;;;9.00;99.90;;;;;;4775130;29;20056;-83
2022/11/12 08:58:25;;;;;;;29.75;16.48;;;8.00;99.90;;;;;;4777932;29;20062;-83
2022/11/12 09:00:51;;;;;;;42.00;18.10;;;10.10;99.90;;;;;;4776116;29;20059;-83
2022/11/12 09:03:19;;;;;;;35.13;17.45;;;9.10;99.90;;;;;;4779721;29;20082;-84
2022/11/12 09:05:45;;;;;;;23.65;15.10;;;9.10;99.90;;;;;;4777735;29;20051;-84
2022/11/12 09:08:16;;;;;;;29.90;16.75;;;9.20;99.90;;;;;;4778766;29;20175;-84
2022/11/12 09:10:43;;;;;;;27.70;15.23;;;9.10;99.90;;;;;;4775876;29;20092;-85
2022/11/12 09:13:08;;;;;;;26.02;15.30;;;9.10;99.90;;;;;;4791951;29;20054;-84
2022/11/12 09:15:34;;;;;;;23.95;15.57;;;9.10;99.90;;;;;;4777290;29;20043;-82
2022/11/12 09:18:03;;;;;;;29.73;15.98;;;9.10;99.90;;;;;;4790088;29;20059;-84
2022/11/12 09:20:30;;;;;;;28.02;15.98;;;9.10;99.90;;;;;;4776201;29;20156;-84
2022/11/12 09:23:01;;;;;;;29.73;16.30;;;9.20;99.90;;;;;;4787755;29;20069;-84
2022/11/12 09:25:37;;;;;;;;;;;;;;;;;;;;;
2022/11/12 09:28:14;;;;;;;24.13;13.95;;;9.00;99.90;;;;;;4809946;29;20050;-85
2022/11/12 09:30:45;;;;;;;27.65;15.35;;;8.90;99.90;;;;;;4811724;29;20051;-85
2022/11/12 09:33:15;;;;;;;47.40;17.55;;;9.00;99.90;;;;;;4799553;29;20050;-87
2022/11/12 09:35:41;;;;;;;30.83;16.80;;;8.90;99.90;;;;;;4803028;29;20508;-85
2022/11/12 09:38:07;;;;;;;34.40;18.13;;;9.00;99.90;;;;;;4816589;29;20599;-85
2022/11/12 09:40:51;;;;;;;41.03;18.80;;;9.00;99.90;;;;;;4800154;29;20055;-85
2022/11/12 09:43:24;;;;;;;34.45;17.55;;;8.90;99.90;;;;;;4798950;29;20087;-85
2022/11/12 09:45:52;;;;;;;48.22;18.00;;;9.00;99.90;;;;;;4798309;29;20069;-86
2022/11/12 09:48:35;;;;;;;42.72;18.15;;;8.90;99.90;;;;;;4794992;29;20145;-86
2022/11/12 09:51:14;;;;;;;33.65;17.70;;;8.90;99.90;;;;;;4797438;29;20826;-86
2022/11/12 09:53:58;;;;;;;36.15;17.13;;;8.90;99.90;;;;;;4810836;29;20050;-85
2022/11/12 09:56:28;;;;;;;36.63;17.98;;;8.90;99.90;;;;;;4812492;29;20167;-86
2022/11/12 09:58:54;;;;;;;50.97;18.92;;;8.80;99.90;;;;;;4795466;29;20562;-86
2022/11/12 10:01:47;;;;;;;54.38;20.25;;;8.80;99.90;;;;;;4796625;29;20047;-86
2022/11/12 10:04:38;;;;;;;43.22;18.70;;;8.90;99.90;;;;;;4811922;29;20084;-84
2022/11/12 10:07:21;;;;;;;56.85;21.05;;;8.90;99.90;;;;;;4798702;29;20062;-85
2022/11/12 10:10:30;;;;;;;70.90;21.67;;;8.90;99.90;;;;;;4797499;29;20062;-86
2022/11/12 10:13:26;;;;;;;40.80;19.95;;;8.90;99.90;;;;;;4793602;29;20515;-86
2022/11/12 10:19:17;;;;;;;44.03;20.63;;;8.90;99.90;;;;;;4812077;29;20070;-85
2022/11/12 10:22:08;;;;;;;35.20;19.83;;;9.10;99.90;;;;;;4791372;29;20149;-85
2022/11/12 10:24:36;;;;;;;41.20;19.70;;;9.00;99.90;;;;;;4810518;29;20235;-84
2022/11/12 10:27:14;;;;;;;40.03;20.98;;;10.00;99.90;;;;;;4791373;29;20054;-84
2022/11/12 10:29:54;;;;;;;34.92;19.77;;;9.10;99.90;;;;;;4813721;29;20061;-84
2022/11/12 10:32:20;;;;;;;31.88;18.80;;;9.10;99.90;;;;;;4814003;29;20050;-85
2022/11/12 10:34:48;;;;;;;37.50;19.77;;;9.10;99.90;;;;;;4810624;29;20266;-85
2022/11/12 10:37:43;;;;;;;36.67;20.23;;;9.20;99.90;;;;;;4781130;29;20086;-86
2022/11/12 10:40:28;;;;;;;37.40;20.15;;;8.00;99.90;;;;;;4784243;29;20504;-86
2022/11/12 10:43:25;;;;;;;42.72;22.00;;;9.00;99.90;;;;;;4812041;29;20058;-85
2022/11/12 10:45:51;;;;;;;36.47;20.08;;;9.10;99.90;;;;;;4793912;29;20557;-85
2022/11/12 10:48:33;;;;;;;38.38;19.20;;;9.80;99.90;;;;;;4794826;29;20041;-85
2022/11/12 10:50:59;;;;;;;45.25;20.75;;;9.60;99.90;;;;;;4794451;29;20224;-86
2022/11/12 10:53:39;;;;;;;41.03;21.38;;;9.10;99.90;;;;;;4806677;29;20532;-86
2022/11/12 10:56:31;;;;;;;40.25;20.35;;;9.50;99.90;;;;;;4793633;29;20695;-85
2022/11/12 10:59:20;;;;;;;71.82;22.77;;;9.20;99.90;;;;;;4807726;29;20088;-85
2022/11/12 11:02:02;;;;;;;42.42;19.85;;;9.20;99.90;;;;;;4801216;29;20533;-85
2022/11/12 11:04:34;;;;;;;39.38;20.73;;;9.20;99.90;;;;;;4807979;29;20142;-85
2022/11/12 11:07:29;;;;;;;37.60;21.52;;;9.20;99.90;;;;;;4792351;29;20160;-84
2022/11/12 11:09:59;;;;;;;34.63;20.33;;;9.20;99.90;;;;;;4791508;29;20070;-85
2022/11/12 11:12:27;;;;;;;32.83;19.40;;;8.50;99.90;;;;;;4809130;29;20164;-84
2022/11/12 11:15:15;;;;;;;38.80;20.70;;;9.30;99.90;;;;;;4806332;29;20164;-84
2022/11/12 11:17:41;;;;;;;36.97;19.55;;;9.30;99.90;;;;;;4807479;29;20058;-83
2022/11/12 11:20:24;;;;;;;34.15;19.50;;;9.20;99.90;;;;;;4788824;29;20304;-84
2022/11/12 11:23:02;;;;;;;36.03;20.20;;;9.30;99.90;;;;;;4806900;29;20078;-84
2022/11/12 11:25:30;;;;;;;36.67;21.52;;;9.30;99.90;;;;;;4806620;29;20560;-85
2022/11/12 11:28:19;;;;;;;40.85;22.02;;;9.30;99.90;;;;;;4793875;29;20686;-85
2022/11/12 11:31:12;;;;;;;66.50;25.65;;;9.30;99.90;;;;;;4809025;29;20500;-86
2022/11/12 11:33:56;;;;;;;52.10;23.67;;;9.30;99.90;;;;;;4795852;29;20062;-85
2022/11/12 11:36:38;;;;;;;79.50;27.17;;;9.40;99.90;;;;;;4805454;29;20065;-86
2022/11/12 11:39:27;;;;;;;57.72;25.42;;;9.40;99.90;;;;;;4796385;29;20046;-85
2022/11/12 11:42:16;;;;;;;49.40;23.92;;;9.60;99.90;;;;;;4811225;29;20488;-86
2022/11/12 11:45:03;;;;;;;61.35;25.42;;;8.80;99.90;;;;;;4795111;29;20081;-85
2022/11/12 11:47:48;;;;;;;50.08;26.13;;;9.60;99.90;;;;;;4791895;29;20551;-84
2022/11/12 11:50:18;;;;;;;45.72;24.80;;;9.70;99.90;;;;;;4794519;29;20045;-84
2022/11/12 11:52:53;;;;;;;54.05;28.27;;;9.70;99.90;;;;;;4808509;29;20065;-85
2022/11/12 11:55:32;;;;;;;48.88;27.20;;;9.70;99.90;;;;;;4809996;29;20081;-85
2022/11/12 11:58:19;;;;;;;52.00;27.75;;;9.90;99.90;;;;;;4809541;29;20050;-85
2022/11/12 12:01:16;;;;;;;60.95;29.00;;;9.90;99.90;;;;;;4809872;29;20085;-84
2022/11/12 12:04:06;;;;;;;51.45;27.27;;;8.80;99.90;;;;;;4806648;29;20086;-84
2022/11/12 12:06:43;;;;;;;50.47;26.45;;;10.00;99.90;;;;;;4793373;29;20181;-85
2022/11/12 12:09:36;;;;;;;50.33;26.17;;;10.00;99.90;;;;;;4805273;29;20734;-84
2022/11/12 12:12:02;;;;;;;46.22;26.05;;;10.00;99.90;;;;;;4807458;29;20062;-86
2022/11/12 12:14:40;;;;;;;47.80;28.50;;;10.00;99.90;;;;;;4797476;29;20504;-85
2022/11/12 12:17:33;;;;;;;46.63;27.73;;;10.10;99.90;;;;;;4811307;29;20325;-86
2022/11/12 12:20:36;;;;;;;52.70;29.08;;;10.10;99.90;;;;;;4812862;29;20068;-87
2022/11/12 12:23:22;;;;;;;47.03;27.25;;;10.20;99.90;;;;;;4809421;29;20061;-86
2022/11/12 12:25:56;;;;;;;49.40;28.85;;;10.00;99.90;;;;;;4792303;29;20068;-86
2022/11/12 12:28:40;;;;;;;52.28;29.20;;;10.30;99.90;;;;;;4822088;29;20078;-86
2022/11/12 12:31:17;;;;;;;51.65;28.42;;;10.30;99.90;;;;;;4832615;29;20050;-86
2022/11/12 12:33:52;;;;;;;53.97;29.13;;;10.40;99.90;;;;;;4799994;29;20058;-86
2022/11/12 12:36:40;;;;;;;55.72;30.85;;;10.40;99.90;;;;;;4797293;29;20460;-85
2022/11/12 12:39:32;;;;;;;50.88;29.65;;;10.40;99.90;;;;;;4810601;29;20125;-83
2022/11/12 12:42:14;;;;;;;53.20;30.45;;;10.50;99.90;;;;;;4800333;29;20089;-85
2022/11/12 12:45:03;;;;;;;51.85;30.13;;;10.50;99.90;;;;;;4800523;29;20054;-86
2022/11/12 12:47:34;;;;;;;52.72;29.45;;;10.40;99.90;;;;;;4832852;29;20053;-85
2022/11/12 12:50:10;;;;;;;53.63;28.77;;;10.70;99.90;;;;;;4796648;29;20102;-86
2022/11/12 12:52:59;;;;;;;50.17;29.90;;;10.50;99.90;;;;;;4795964;29;20708;-86
2022/11/12 12:55:40;;;;;;;49.15;30.40;;;10.60;99.90;;;;;;4816921;29;20046;-86
2022/11/12 12:58:40;;;;;;;50.88;29.83;;;10.60;99.90;;;;;;4812334;29;20053;-84
2022/11/12 13:01:21;;;;;;;56.20;30.33;;;10.50;99.90;;;;;;4799268;29;20050;-85
2022/11/12 13:03:52;;;;;;;53.47;29.58;;;10.60;99.90;;;;;;4816008;29;20061;-86
2022/11/12 13:06:21;;;;;;;47.97;29.25;;;10.00;99.90;;;;;;4814827;29;20102;-85
2022/11/12 13:08:58;;;;;;;44.35;27.85;;;10.60;99.90;;;;;;4807580;29;20053;-86
2022/11/12 13:14:49;;;;;;;51.97;29.23;;;10.80;99.90;;;;;;4820423;29;20053;-86
2022/11/12 13:17:48;;;;;;;43.60;27.05;;;10.80;99.90;;;;;;4803408;29;20263;-86
2022/11/12 13:20:16;;;;;;;44.15;27.13;;;10.70;99.90;;;;;;4801235;29;20189;-85
2022/11/12 13:22:42;;;;;;;42.58;27.67;;;10.80;99.90;;;;;;4803642;29;20092;-87
2022/11/12 13:25:11;;;;;;;44.10;27.50;;;10.80;99.90;;;;;;4805279;29;20060;-86
2022/11/12 13:27:43;;;;;;;42.90;26.27;;;10.60;99.90;;;;;;4803866;29;20085;-85
2022/11/12 13:30:13;;;;;;;40.97;26.20;;;10.90;99.90;;;;;;4804077;29;20613;-85
2022/11/12 13:32:51;;;;;;;40.28;24.58;;;10.90;99.90;;;;;;4834538;29;20129;-86